createdAt,value
2023-05-13T03:00:19.405Z,12.30
2023-05-13T03:02:47.786Z,12.30
2023-05-13T03:05:15.849Z,12.20
2023-05-13T03:07:43.713Z,12.10
2023-05-13T03:10:14.274Z,12.10
2023-05-13T03:12:43.264Z,12.10
2023-05-13T03:15:11.915Z,12.20
2023-05-13T03:17:42.100Z,12.20
2023-05-13T03:20:11.323Z,12.30
2023-05-13T03:22:39.499Z,12.40
2023-05-13T03:25:08.773Z,12.30
2023-05-13T03:27:42.981Z,12.20
2023-05-13T03:30:13.004Z,12.20
2023-05-13T03:32:59.604Z,12.20
2023-05-13T03:35:28.026Z,12.20
2023-05-13T03:37:56.608Z,12.20
2023-05-13T03:40:25.320Z,12.20
2023-05-13T03:42:53.268Z,12.30
2023-05-13T03:45:23.274Z,12.30
2023-05-13T03:47:53.845Z,12.40
2023-05-13T03:50:25.700Z,12.40
2023-05-13T03:52:54.015Z,12.40
2023-05-13T03:55:23.331Z,12.50
2023-05-13T03:57:51.210Z,12.40
2023-05-13T04:00:22.054Z,12.50
2023-05-13T04:02:50.290Z,12.60
2023-05-13T04:05:18.393Z,12.50
2023-05-13T04:07:48.995Z,12.50
2023-05-13T04:10:17.478Z,12.50
2023-05-13T04:12:45.349Z,12.60
2023-05-13T04:15:13.201Z,12.70
2023-05-13T04:17:41.688Z,12.70
2023-05-13T04:20:10.392Z,12.70
2023-05-13T04:22:38.341Z,12.70
2023-05-13T04:25:08.193Z,12.80
2023-05-13T04:27:36.096Z,12.80
2023-05-13T04:30:11.671Z,12.80
2023-05-13T04:32:41.133Z,12.60
2023-05-13T04:35:10.912Z,12.60
2023-05-13T04:37:39.648Z,12.60
2023-05-13T04:40:12.399Z,12.50
2023-05-13T04:42:40.290Z,12.50
2023-05-13T04:45:09.357Z,12.50
2023-05-13T04:47:38.192Z,12.40
2023-05-13T04:50:07.676Z,12.40
2023-05-13T04:52:37.290Z,12.30
2023-05-13T04:55:06.342Z,12.30
2023-05-13T04:57:35.915Z,12.30
2023-05-13T05:00:05.240Z,12.20
2023-05-13T05:02:35.430Z,12.20
2023-05-13T05:05:03.363Z,12.30
2023-05-13T05:07:31.285Z,12.30
2023-05-13T05:09:59.479Z,12.40
2023-05-13T05:12:30.535Z,12.30
2023-05-13T05:14:59.914Z,12.30
2023-05-13T05:17:32.521Z,12.40
2023-05-13T05:20:02.718Z,12.40
2023-05-13T05:22:30.839Z,12.30
2023-05-13T05:24:58.768Z,12.30
2023-05-13T05:27:26.840Z,12.40
2023-05-13T05:29:54.710Z,12.40
2023-05-13T05:32:25.374Z,12.40
2023-05-13T05:34:53.516Z,12.50
2023-05-13T05:37:21.416Z,12.50
2023-05-13T05:39:49.293Z,12.60
2023-05-13T05:42:17.249Z,12.60
2023-05-13T05:44:45.099Z,12.70
2023-05-13T05:47:13.025Z,12.70
2023-05-13T05:49:42.512Z,12.70
2023-05-13T05:52:11.195Z,12.70
2023-05-13T05:54:39.230Z,12.70
2023-05-13T05:57:07.558Z,12.80
2023-05-13T05:59:35.589Z,12.80
2023-05-13T06:02:04.387Z,12.90
2023-05-13T06:04:32.543Z,12.90
2023-05-13T06:07:01.889Z,13.00
2023-05-13T06:09:29.870Z,13.10
2023-05-13T06:11:57.720Z,13.20
2023-05-13T06:14:25.556Z,13.30
2023-05-13T06:16:54.931Z,13.40
2023-05-13T06:19:23.681Z,13.60
2023-05-13T06:21:51.597Z,13.60
2023-05-13T06:24:21.479Z,13.70
2023-05-13T06:26:49.333Z,13.70
2023-05-13T06:29:17.718Z,13.70
2023-05-13T06:31:45.601Z,13.60
2023-05-13T06:34:16.558Z,13.60
2023-05-13T06:36:44.868Z,13.70
2023-05-13T06:39:13.552Z,13.60
2023-05-13T06:41:43.153Z,13.60
2023-05-13T06:44:15.276Z,13.60
2023-05-13T06:46:46.833Z,13.70
2023-05-13T06:49:14.737Z,13.70
2023-05-13T06:51:42.602Z,13.70
2023-05-13T06:54:10.473Z,13.70
2023-05-13T06:56:38.340Z,13.70
2023-05-13T06:59:07.594Z,13.90
2023-05-13T07:01:35.576Z,14.00
2023-05-13T07:04:03.576Z,14.00
2023-05-13T07:06:31.589Z,14.00
2023-05-13T07:08:59.847Z,14.20
2023-05-13T07:11:28.935Z,14.30
2023-05-13T07:13:56.874Z,14.40
2023-05-13T07:16:27.517Z,14.50
2023-05-13T07:18:55.551Z,14.60
2023-05-13T07:21:23.448Z,14.70
2023-05-13T07:23:51.390Z,14.80
2023-05-13T07:26:19.224Z,15.00
2023-05-13T07:28:47.102Z,15.20
2023-05-13T07:31:15.029Z,15.30
2023-05-13T07:33:46.759Z,15.40
2023-05-13T07:36:14.704Z,15.60
2023-05-13T07:38:44.128Z,15.80
2023-05-13T07:41:12.104Z,16.00
2023-05-13T07:43:40.837Z,16.20
2023-05-13T07:46:08.688Z,16.30
2023-05-13T07:48:36.605Z,16.30
2023-05-13T07:51:06.294Z,16.30
2023-05-13T07:53:35.526Z,16.40
2023-05-13T07:56:03.399Z,16.40
2023-05-13T07:58:31.518Z,16.50
2023-05-13T08:00:59.538Z,16.60
2023-05-13T08:03:27.510Z,16.70
2023-05-13T08:05:55.459Z,16.80
2023-05-13T08:08:24.653Z,16.80
2023-05-13T08:10:52.525Z,16.80
2023-05-13T08:13:21.346Z,16.90
2023-05-13T08:15:49.541Z,16.80
2023-05-13T08:18:17.373Z,16.80
2023-05-13T08:20:45.236Z,16.80
2023-05-13T08:23:13.113Z,16.90
2023-05-13T08:25:42.403Z,17.00
2023-05-13T08:28:10.303Z,17.10
2023-05-13T08:30:40.645Z,17.20
2023-05-13T08:33:08.711Z,17.20
2023-05-13T08:35:36.633Z,17.30
2023-05-13T08:38:05.523Z,17.40
2023-05-13T08:40:33.711Z,17.40
2023-05-13T08:43:04.801Z,17.30
2023-05-13T08:45:35.583Z,17.30
2023-05-13T08:48:04.254Z,17.30
2023-05-13T08:50:32.423Z,17.30
2023-05-13T08:53:00.924Z,17.40
2023-05-13T08:55:29.208Z,17.40
2023-05-13T08:57:57.380Z,17.40
2023-05-13T09:00:26.573Z,17.40
2023-05-13T09:02:54.455Z,17.40
2023-05-13T09:05:24.934Z,17.50
2023-05-13T09:07:53.393Z,17.50
2023-05-13T09:10:22.689Z,17.60
2023-05-13T09:12:52.071Z,17.60
2023-05-13T09:15:21.397Z,17.70
2023-05-13T09:17:53.060Z,17.80
2023-05-13T09:20:22.745Z,17.80
2023-05-13T09:22:52.663Z,17.90
2023-05-13T09:25:24.096Z,18.00
2023-05-13T09:27:53.235Z,18.20
2023-05-13T09:30:22.352Z,18.30
2023-05-13T09:35:49.517Z,18.40
2023-05-13T09:38:18.635Z,18.80
2023-05-13T09:40:54.214Z,18.90
2023-05-13T09:43:23.330Z,19.10
2023-05-13T09:45:54.810Z,19.10
2023-05-13T09:48:23.033Z,19.20
2023-05-13T09:50:52.443Z,19.20
2023-05-13T09:53:21.135Z,19.30
2023-05-13T09:55:49.823Z,19.30
2023-05-13T09:58:20.048Z,19.40
2023-05-13T10:00:48.710Z,19.40
2023-05-13T10:03:17.080Z,19.40
2023-05-13T10:05:45.606Z,19.50
2023-05-13T10:08:15.698Z,19.60
2023-05-13T10:10:45.618Z,19.90
2023-05-13T10:13:16.672Z,20.20
2023-05-13T10:15:51.396Z,20.60
2023-05-13T10:18:20.852Z,20.70
2023-05-13T10:20:53.445Z,20.90
2023-05-13T10:23:24.455Z,21.00
2023-05-13T10:25:54.622Z,21.30
2023-05-13T10:28:23.025Z,21.40
2023-05-13T10:30:51.719Z,21.60
2023-05-13T10:33:20.101Z,21.70
2023-05-13T10:35:57.850Z,21.90
2023-05-13T10:38:39.005Z,21.90
2023-05-13T10:41:12.875Z,21.90
2023-05-13T10:43:41.150Z,22.00
2023-05-13T10:46:12.549Z,21.90
2023-05-13T10:48:42.906Z,22.10
2023-05-13T10:51:14.707Z,22.30
2023-05-13T10:53:48.888Z,22.40
2023-05-13T10:56:17.679Z,22.70
2023-05-13T10:58:58.840Z,22.90
2023-05-13T11:01:29.352Z,23.10
2023-05-13T11:03:59.083Z,23.20
2023-05-13T11:06:34.555Z,23.40
2023-05-13T11:09:06.701Z,23.60
2023-05-13T11:11:36.579Z,23.80
2023-05-13T11:14:09.623Z,23.90
2023-05-13T11:16:38.488Z,24.20
2023-05-13T11:19:11.071Z,24.10
2023-05-13T11:21:41.261Z,24.10
2023-05-13T11:24:10.947Z,24.10
2023-05-13T11:26:46.539Z,24.30
2023-05-13T11:29:14.593Z,24.60
2023-05-13T11:31:48.457Z,24.70
2023-05-13T11:34:17.922Z,24.90
2023-05-13T11:36:47.611Z,24.80
2023-05-13T11:39:18.546Z,25.10
2023-05-13T11:41:48.013Z,25.40
2023-05-13T11:44:18.681Z,25.30
2023-05-13T11:46:54.216Z,25.50
2023-05-13T11:49:35.793Z,25.70
2023-05-13T11:52:04.779Z,26.00
2023-05-13T11:54:41.039Z,26.20
2023-05-13T11:57:16.134Z,26.00
2023-05-13T11:59:58.231Z,25.30
2023-05-13T12:02:28.199Z,24.90
2023-05-13T12:04:56.771Z,24.60
2023-05-13T12:07:26.055Z,24.40
2023-05-13T12:09:58.174Z,24.20
2023-05-13T12:12:27.863Z,24.10
2023-05-13T12:14:57.119Z,23.90
2023-05-13T12:17:25.166Z,23.80
2023-05-13T12:20:07.203Z,23.70
2023-05-13T12:22:35.720Z,23.50
2023-05-13T12:25:42.280Z,23.60
2023-05-13T12:28:12.947Z,23.30
2023-05-13T12:30:42.846Z,23.20
2023-05-13T12:33:15.506Z,23.30
2023-05-13T12:35:43.545Z,23.30
2023-05-13T12:38:16.382Z,23.80
2023-05-13T12:40:45.989Z,24.50
2023-05-13T12:43:14.559Z,25.00
2023-05-13T12:45:44.918Z,25.80
2023-05-13T12:48:14.344Z,27.40
2023-05-13T12:50:42.421Z,28.80
2023-05-13T12:53:10.296Z,29.40
2023-05-13T12:55:40.153Z,28.60
2023-05-13T12:58:11.923Z,27.70
2023-05-13T13:00:40.019Z,27.20
2023-05-13T13:03:08.493Z,26.80
2023-05-13T13:05:36.621Z,26.30
2023-05-13T13:08:05.913Z,25.80
2023-05-13T13:10:33.843Z,25.80
2023-05-13T13:13:01.821Z,26.10
2023-05-13T13:15:31.402Z,26.80
2023-05-13T13:17:59.290Z,26.90
2023-05-13T13:20:27.341Z,26.90
2023-05-13T13:22:55.414Z,26.70
2023-05-13T13:25:23.651Z,26.00
2023-05-13T13:27:51.671Z,25.30
2023-05-13T13:30:19.513Z,24.70
2023-05-13T13:32:48.798Z,24.20
2023-05-13T13:35:16.909Z,24.00
2023-05-13T13:37:44.816Z,23.40
2023-05-13T13:40:14.128Z,22.60
2023-05-13T13:42:44.595Z,21.90
2023-05-13T13:45:13.487Z,21.40
2023-05-13T13:47:41.513Z,20.90
2023-05-13T13:50:11.871Z,20.60
2023-05-13T13:52:39.996Z,20.30
2023-05-13T13:55:09.353Z,20.30
2023-05-13T13:57:37.399Z,21.00
2023-05-13T14:00:06.402Z,22.30
2023-05-13T14:02:34.628Z,24.40
2023-05-13T14:05:02.650Z,26.00
2023-05-13T14:07:31.855Z,27.40
2023-05-13T14:10:01.237Z,27.40
2023-05-13T14:12:29.642Z,26.80
2023-05-13T14:14:57.701Z,26.10
2023-05-13T14:17:25.920Z,25.70
2023-05-13T14:19:55.341Z,25.10
2023-05-13T14:22:23.945Z,24.20
2023-05-13T14:24:54.018Z,23.50
2023-05-13T14:27:24.492Z,23.20
2023-05-13T14:29:53.158Z,23.40
2023-05-13T14:32:21.410Z,23.50
2023-05-13T14:34:49.795Z,24.30
2023-05-13T14:37:17.718Z,24.70
2023-05-13T14:39:48.424Z,25.10
2023-05-13T14:42:21.645Z,26.20
2023-05-13T14:44:51.410Z,27.20
2023-05-13T14:47:19.626Z,28.10
2023-05-13T14:49:47.567Z,28.60
2023-05-13T14:52:15.567Z,29.20
2023-05-13T14:54:43.623Z,29.00
2023-05-13T14:57:11.817Z,29.70
2023-05-13T14:59:41.097Z,30.60
2023-05-13T15:02:09.376Z,30.10
2023-05-13T15:04:37.234Z,29.30
2023-05-13T15:07:05.296Z,28.40
2023-05-13T15:09:33.171Z,27.50
2023-05-13T15:12:01.091Z,26.90
2023-05-13T15:14:28.973Z,26.80
2023-05-13T15:16:58.437Z,27.30
2023-05-13T15:19:26.316Z,28.20
2023-05-13T15:21:54.212Z,29.70
2023-05-13T15:24:22.026Z,30.60
2023-05-13T15:26:50.387Z,30.60
2023-05-13T15:29:18.255Z,30.90
2023-05-13T15:31:46.094Z,31.90
2023-05-13T15:34:15.283Z,31.80
2023-05-13T15:36:43.137Z,31.00
2023-05-13T15:39:11.212Z,30.30
2023-05-13T15:41:39.218Z,29.30
2023-05-13T15:44:07.116Z,28.30
2023-05-13T15:46:35.271Z,27.40
2023-05-13T15:49:03.312Z,26.40
2023-05-13T15:51:33.092Z,25.70
2023-05-13T15:54:01.000Z,25.30
2023-05-13T15:56:28.869Z,24.60
2023-05-13T15:58:56.745Z,24.20
2023-05-13T16:01:24.695Z,24.00
2023-05-13T16:03:52.618Z,23.80
2023-05-13T16:06:20.568Z,23.60
2023-05-13T16:08:49.780Z,23.50
2023-05-13T16:11:18.100Z,23.40
2023-05-13T16:13:46.144Z,23.20
2023-05-13T16:16:14.032Z,23.20
2023-05-13T16:18:43.163Z,23.20
2023-05-13T16:21:11.114Z,23.00
2023-05-13T16:23:39.144Z,22.90
2023-05-13T16:26:08.420Z,22.70
2023-05-13T16:28:36.350Z,22.70
2023-05-13T16:31:04.285Z,22.60
2023-05-13T16:33:32.828Z,22.50
2023-05-13T16:36:00.698Z,22.40
2023-05-13T16:38:29.688Z,22.40
2023-05-13T16:40:57.638Z,22.40
2023-05-13T16:43:26.801Z,22.40
2023-05-13T16:45:54.688Z,22.40
2023-05-13T16:48:22.737Z,22.30
2023-05-13T16:50:51.123Z,22.20
2023-05-13T16:53:22.055Z,22.10
2023-05-13T16:55:50.480Z,22.00
2023-05-13T16:58:18.383Z,22.00
2023-05-13T17:00:47.648Z,21.80
2023-05-13T17:03:15.660Z,21.60
2023-05-13T17:05:44.567Z,21.60
2023-05-13T17:08:12.416Z,21.60
2023-05-13T17:10:40.337Z,21.60
2023-05-13T17:13:08.174Z,21.70
2023-05-13T17:15:36.074Z,21.70
2023-05-13T17:18:05.323Z,21.70
2023-05-13T17:20:33.541Z,21.60
2023-05-13T17:23:01.405Z,21.60
2023-05-13T17:25:29.283Z,21.40
2023-05-13T17:27:57.142Z,21.30
2023-05-13T17:30:25.208Z,21.30
2023-05-13T17:32:53.150Z,21.30
2023-05-13T17:35:23.110Z,21.20
2023-05-13T17:37:50.955Z,21.10
2023-05-13T17:40:18.798Z,21.00
2023-05-13T17:42:46.639Z,20.90
2023-05-13T17:45:14.621Z,20.90
2023-05-13T17:47:42.663Z,20.80
2023-05-13T17:50:13.161Z,20.80
2023-05-13T17:52:42.441Z,20.80
2023-05-13T17:55:10.770Z,20.60
2023-05-13T17:57:38.654Z,20.60
2023-05-13T18:00:07.846Z,20.60
2023-05-13T18:02:37.021Z,20.60
2023-05-13T18:05:05.277Z,20.50
2023-05-13T18:07:33.223Z,20.50
2023-05-13T18:10:02.478Z,20.40
2023-05-13T18:12:30.735Z,20.30
2023-05-13T18:14:58.715Z,20.30
2023-05-13T18:17:27.273Z,20.20
2023-05-13T18:19:55.208Z,20.20
2023-05-13T18:22:23.048Z,20.10
2023-05-13T18:24:51.260Z,20.00
2023-05-13T18:27:21.449Z,19.90
2023-05-13T18:29:49.324Z,19.80
2023-05-13T18:32:17.205Z,19.50
2023-05-13T18:34:45.113Z,19.40
2023-05-13T18:37:12.988Z,19.20
2023-05-13T18:39:41.438Z,19.10
2023-05-13T18:42:09.489Z,19.00
2023-05-13T18:44:38.761Z,18.90
2023-05-13T18:47:07.201Z,18.80
2023-05-13T18:49:35.078Z,18.80
2023-05-13T18:52:02.906Z,18.70
2023-05-13T18:54:31.151Z,18.70
2023-05-13T18:56:59.076Z,18.60
2023-05-13T18:59:27.010Z,18.50
2023-05-13T19:01:56.390Z,18.50
2023-05-13T19:04:24.486Z,18.40
2023-05-13T19:06:52.504Z,18.40
2023-05-13T19:09:21.471Z,18.30
2023-05-13T19:11:49.344Z,18.20
2023-05-13T19:14:17.188Z,18.20
2023-05-13T19:16:46.745Z,18.20
2023-05-13T19:19:16.031Z,18.20
2023-05-13T19:21:43.992Z,18.20
2023-05-13T19:24:11.817Z,18.10
2023-05-13T19:26:40.393Z,18.10
2023-05-13T19:29:08.308Z,18.10
2023-05-13T19:31:36.194Z,18.10
2023-05-13T19:34:04.096Z,18.10
2023-05-13T19:36:33.309Z,18.00
2023-05-13T19:39:01.234Z,18.00
2023-05-13T19:41:29.071Z,17.90
2023-05-13T19:43:56.915Z,17.70
2023-05-13T19:46:24.840Z,17.70
2023-05-13T19:48:52.716Z,17.70
2023-05-13T19:51:20.562Z,17.70
2023-05-13T19:53:49.788Z,17.70
2023-05-13T19:56:17.679Z,17.60
2023-05-13T19:58:45.533Z,17.60
2023-05-13T20:01:14.873Z,17.50
2023-05-13T20:03:42.958Z,17.50
2023-05-13T20:06:10.998Z,17.40
2023-05-13T20:08:39.590Z,17.40
2023-05-13T20:11:08.781Z,17.30
2023-05-13T20:13:36.671Z,17.30
2023-05-13T20:16:04.540Z,17.20
2023-05-13T20:18:32.526Z,17.20
2023-05-13T20:21:00.557Z,17.30
2023-05-13T20:23:28.419Z,17.20
2023-05-13T20:25:57.243Z,17.20
2023-05-13T20:28:26.535Z,17.20
2023-05-13T20:30:55.566Z,17.10
2023-05-13T20:33:23.465Z,17.10
2023-05-13T20:35:51.308Z,17.00
2023-05-13T20:38:19.340Z,17.00
2023-05-13T20:40:47.392Z,17.00
2023-05-13T20:43:16.703Z,17.00
2023-05-13T20:45:46.021Z,16.90
2023-05-13T20:48:13.913Z,16.60
2023-05-13T20:50:41.899Z,16.50
2023-05-13T20:53:09.758Z,16.50
2023-05-13T20:55:37.594Z,16.50
2023-05-13T20:58:05.426Z,16.50
2023-05-13T21:00:33.303Z,16.40
2023-05-13T21:03:02.742Z,16.40
2023-05-13T21:05:31.447Z,16.40
2023-05-13T21:07:59.266Z,16.40
2023-05-13T21:10:27.163Z,16.30
2023-05-13T21:12:54.975Z,16.30
2023-05-13T21:15:22.841Z,16.20
2023-05-13T21:17:50.738Z,16.10
2023-05-13T21:20:20.230Z,15.90
2023-05-13T21:22:48.273Z,15.70
2023-05-13T21:25:16.245Z,15.70
2023-05-13T21:27:44.067Z,15.70
2023-05-13T21:30:13.383Z,15.70
2023-05-13T21:32:41.392Z,15.70
2023-05-13T21:35:09.702Z,15.70
2023-05-13T21:37:38.922Z,15.70
2023-05-13T21:40:08.499Z,15.60
2023-05-13T21:42:36.443Z,15.60
2023-05-13T21:45:04.513Z,15.60
2023-05-13T21:47:33.072Z,15.50
2023-05-13T21:50:00.944Z,15.40
2023-05-13T21:52:28.809Z,15.40
2023-05-13T21:54:57.987Z,15.40
2023-05-13T21:57:25.902Z,15.40
2023-05-13T21:59:53.781Z,15.30
